Panna Maria, TX (78144)

8:41 AM CST on February 12, 2016 (GMT -0600)
Karnes County | | Change Station
CLOSE
Current Station
Personal Weather Station
Location: Karnes City, TX
Elevation: 381 ft
Nearby Weather Stations
Active Advisory: Dense Fog Advisory

Elev 381 ft 28.88 °N, 97.86 °W | Updated 29 seconds ago

Fog
Fog
58.5 °F
Feels Like 58.5 °F
N
6.0
Wind Variable Wind from South
Gusts 8.0 mph

Today
High -- | Low -- °F
--% Chance of Precip.
Yesterday
High -- | Low -- °F
Precip. -- in
Pressure 30.23 in
Visibility 0.2 miles
Clouds Overcast 100 ft
Dew Point 58 °F
Humidity 98%
Rainfall 0.00 in
Snow Depth Not available.
7:13 AM 6:18 PM
Waxing Crescent, 21% visible
METAR KPEZ 121435Z AUTO 00000KT M1/4SM FG OVC001 08/08 A3023 RMK AO2 T00810078
Pressure 30.23 in
Visibility 0.2 miles
Clouds Overcast 100 ft
Dew Point 58 °F
Humidity 98%
Rainfall 0.00 in
Snow Depth Not available.
7:13 AM 6:18 PM
Waxing Crescent, 21% visible
METAR KPEZ 121435Z AUTO 00000KT M1/4SM FG OVC001 08/08 A3023 RMK AO2 T00810078

10-Day Weather Forecast

Almanac

Astronomy

Feb. 12, 2016 Rise Set
Actual Time
Civil Twilight
Nautical Twilight
Astronomical Twilight
Moon
Length of Visible Light
Length of Day
Tomorrow will be .
, % of the Moon is Illuminated

Today's Extremes

State Highs State Lows

Community

WunderPhotos

Upload Photos

1,892,318 photos uploaded!

WunderBlog® & News

Nearby

Air Quality

  Air Quality AQ Index Pollutant
Not available.

Snow Depth

Station Depth Elevation

Earthquake Activity

City Distance Mag. Time & Date
Minimum magnitude displayed is 2.5.

Coastal Water Temperatures

Place Temperature

Stations

Nearby Weather Stations

Station Location Temp. Windchill Dew Point Humidity Wind Precip. Elev Updated Type
                   

Watches & Warnings

Dense Fog Advisory
Issued: 4:48 AM CST Feb. 12, 2016 – National Weather Service

... Dense fog advisory in effect until 9 am CST this morning...

The National Weather Service in Austin/San Antonio has issued a
dense fog advisory... which is in effect until 9 am CST this
morning.

* Visibility... one half to one quarter mile

* impacts... poor visibility will cause hazardous driving
conditions.

Precautionary/preparedness actions...

A dense fog advisory means visibilities will frequently be
reduced to less than one quarter mile. If driving... slow down...
use your headlights... and leave plenty of distance ahead of you.



Allen